Time;durP1;ratioP1;P1;durP2;ratioP2;P2;SDS_P1;SDS_P2;PMS_P1;PMS_P2;Temp;Humidity;BMP_temperature;BMP_pressure;BME280_temperature;BME280_humidity;BME280_pressure;Samples;Min_cycle;Max_cycle;Signal;HPM_P1;HPM_P2
2021/09/10 00:00:07;;;;;;;;;;;;;;;23.79;71.72;100680.00;7281819;19;152951;-49
2021/09/10 00:02:34;;;;;;;;;;;;;;;23.79;71.66;100685.63;7279699;19;154142;-50
2021/09/10 00:05:01;;;;;;;;;;;;;;;23.77;71.89;100676.66;7289818;19;152000;-51
2021/09/10 00:07:28;;;;;;;;;;;;;;;23.78;71.80;100673.53;7279575;19;154226;-50
2021/09/10 00:09:55;;;;;;;;;;;;;;;23.77;71.57;100671.84;7280966;19;152140;-49
2021/09/10 00:12:22;;;;;;;;;;;;;;;23.79;71.93;100668.72;7280363;19;153295;-51
2021/09/10 00:14:49;;;;;;;;;;;;;;;23.77;71.80;100674.69;7282527;19;154375;-51
2021/09/10 00:17:16;;;;;;;;;;;;;;;23.80;72.00;100676.00;7276025;19;151912;-51
2021/09/10 00:19:43;;;;;;;;;;;;;;;23.80;71.74;100668.34;7283518;19;152704;-50
2021/09/10 00:22:10;;;;;;;;;;;;;;;23.81;71.75;100675.66;7277995;19;154443;-50
2021/09/10 00:24:37;;;;;;;;;;;;;;;23.82;71.44;100668.84;7278917;19;151977;-51
2021/09/10 00:27:04;;;;;;;;;;;;;;;23.85;71.74;100670.16;7288630;19;152673;-50
2021/09/10 00:29:31;;;;;;;;;;;;;;;23.85;71.79;100670.16;7284501;19;152621;-49
2021/09/10 00:31:58;;;;;;;;;;;;;;;23.85;71.57;100662.53;7288842;19;153362;-51
2021/09/10 00:34:25;;;;;;;;;;;;;;;23.84;71.46;100677.00;7287915;19;153904;-50
2021/09/10 00:36:52;;;;;;;;;;;;;;;23.81;71.40;100672.84;7288180;19;151881;-51
2021/09/10 00:39:21;;;;;;;;;;;;;;;23.82;71.48;100673.66;7288691;19;153416;-51
2021/09/10 00:41:48;;;;;;;;;;;;;;;23.82;71.55;100680.13;7287435;19;154324;-50
2021/09/10 00:44:16;;;;;;;;;;;;;;;23.82;71.80;100668.84;7286230;19;152606;-52
2021/09/10 00:46:43;;;;;;;;;;;;;;;23.81;71.54;100680.47;7285884;19;154569;-50
2021/09/10 00:49:10;;;;;;;;;;;;;;;23.83;72.10;100676.16;7294234;19;152081;-50
2021/09/10 00:51:37;;;;;;;;;;;;;;;23.86;72.27;100683.09;7286041;19;153695;-52
2021/09/10 00:54:04;;;;;;;;;;;;;;;23.85;71.90;100687.91;7285615;19;153251;-52
2021/09/10 00:56:31;;;;;;;;;;;;;;;23.84;71.73;100682.63;7287777;19;152028;-51
2021/09/10 00:59:00;;;;;;;;;;;;;;;23.83;72.46;100683.78;7288174;19;153406;-52
2021/09/10 01:01:27;;;;;;;;;;;;;;;23.83;72.10;100675.34;7286843;19;153830;-51
2021/09/10 01:03:55;;;;;;;;;;;;;;;23.83;72.17;100686.63;7285133;19;152079;-51
2021/09/10 01:06:23;;;;;;;;;;;;;;;23.83;72.14;100684.63;7287484;19;152851;-52
2021/09/10 01:08:51;;;;;;;;;;;;;;;23.83;72.43;100689.44;7281150;19;153484;-51
2021/09/10 01:11:19;;;;;;;;;;;;;;;23.84;72.40;100685.47;7293469;19;151947;-50
2021/09/10 01:13:46;;;;;;;;;;;;;;;23.83;72.49;100690.28;7285850;19;153360;-51
2021/09/10 01:16:13;;;;;;;;;;;;;;;23.82;72.31;100685.78;7286463;19;151586;-51
2021/09/10 01:18:40;;;;;;;;;;;;;;;23.83;72.37;100690.28;7283122;19;152286;-51
2021/09/10 01:21:07;;;;;;;;;;;;;;;23.84;72.70;100674.16;7286288;19;154089;-50
2021/09/10 01:23:34;;;;;;;;;;;;;;;23.85;72.84;100675.81;7283989;19;152146;-51
2021/09/10 01:26:01;;;;;;;;;;;;;;;23.83;72.56;100683.78;7286512;19;152624;-51
2021/09/10 01:28:28;;;;;;;;;;;;;;;23.83;72.88;100672.50;7282726;19;153266;-51
2021/09/10 01:30:55;;;;;;;;;;;;;;;23.82;72.78;100682.13;7285263;19;152809;-50
2021/09/10 01:33:22;;;;;;;;;;;;;;;23.87;72.91;100679.13;7286782;19;153274;-51
2021/09/10 01:35:49;;;;;;;;;;;;;;;23.86;72.77;100685.94;7287891;19;151901;-51
2021/09/10 01:38:16;;;;;;;;;;;;;;;23.85;72.88;100690.75;7286818;19;152670;-51
2021/09/10 01:40:43;;;;;;;;;;;;;;;23.85;72.84;100687.91;7283695;19;153591;-52
2021/09/10 01:43:10;;;;;;;;;;;;;;;23.87;72.87;100684.78;7287627;19;151955;-50
2021/09/10 01:45:37;;;;;;;;;;;;;;;23.86;72.75;100686.75;7284771;19;152046;-51
2021/09/10 01:48:04;;;;;;;;;;;;;;;23.86;73.03;100685.94;7283851;19;153140;-51
2021/09/10 01:50:31;;;;;;;;;;;;;;;23.87;73.09;100685.59;7285229;19;153277;-52
2021/09/10 01:52:58;;;;;;;;;;;;;;;23.86;73.13;100678.28;7285550;19;152428;-50
2021/09/10 01:55:25;;;;;;;;;;;;;;;23.88;73.06;100686.44;7286330;19;152058;-51
2021/09/10 01:57:52;;;;;;;;;;;;;;;23.89;73.19;100685.28;7284611;19;154157;-54
2021/09/10 02:00:20;;;;;;;;;;;;;;;23.88;73.47;100695.72;7282721;19;156441;-53
2021/09/10 02:02:47;;;;;;;;;;;;;;;23.89;73.45;100690.91;7284625;19;151803;-53
2021/09/10 02:05:15;;;;;;;;;;;;;;;23.92;73.71;100688.25;7283056;19;153816;-52
2021/09/10 02:07:42;;;;;;;;;;;;;;;23.92;73.49;100688.25;7281503;19;154163;-53
2021/09/10 02:10:10;;;;;;;;;;;;;;;23.93;73.83;100700.38;7287010;19;152436;-53
2021/09/10 02:12:38;;;;;;;;;;;;;;;23.93;73.70;100689.06;7286615;19;153838;-53
2021/09/10 02:15:08;;;;;;;;;;;;;;;23.95;73.72;100700.84;7291307;19;153562;-53
2021/09/10 02:17:35;;;;;;;;;;;;;;;23.91;73.74;100692.22;7282194;19;153303;-53
2021/09/10 02:20:03;;;;;;;;;;;;;;;23.92;73.90;100687.41;7279220;19;154141;-53
2021/09/10 02:22:30;;;;;;;;;;;;;;;23.93;74.31;100694.72;7283917;19;152048;-53
2021/09/10 02:24:57;;;;;;;;;;;;;;;23.91;74.27;100695.03;7286748;19;153711;-53
2021/09/10 02:27:24;;;;;;;;;;;;;;;23.92;74.63;100698.69;7281560;19;152429;-52
2021/09/10 02:29:50;;;;;;;;;;;;;;;23.91;74.71;100697.03;7284313;19;152205;-53
2021/09/10 02:32:17;;;;;;;;;;;;;;;23.92;74.42;100693.88;7285784;19;152125;-52
2021/09/10 02:34:44;;;;;;;;;;;;;;;23.92;74.86;100704.34;7284340;19;153573;-53
2021/09/10 02:37:12;;;;;;;;;;;;;;;23.92;75.05;100698.69;7293433;19;153352;-52
2021/09/10 02:39:39;;;;;;;;;;;;;;;23.93;74.95;100697.53;7285089;19;153955;-53
2021/09/10 02:42:06;;;;;;;;;;;;;;;23.93;74.92;100703.19;7282845;19;152119;-54
2021/09/10 02:44:33;;;;;;;;;;;;;;;23.92;75.06;100696.72;7285312;19;152728;-53
2021/09/10 02:47:00;;;;;;;;;;;;;;;23.93;75.12;100689.06;7281530;19;153267;-53
2021/09/10 02:49:27;;;;;;;;;;;;;;;23.93;75.00;100689.06;7281639;19;151576;-52
2021/09/10 02:51:54;;;;;;;;;;;;;;;23.93;75.04;100687.09;7283143;19;153444;-53
2021/09/10 02:54:21;;;;;;;;;;;;;;;23.94;75.27;100690.72;7281854;19;153265;-53
2021/09/10 02:56:48;;;;;;;;;;;;;;;23.93;75.26;100680.59;7286108;19;151918;-52
2021/09/10 02:59:15;;;;;;;;;;;;;;;23.93;74.94;100677.78;7289690;19;153235;-52
2021/09/10 03:01:44;;;;;;;;;;;;;;;23.94;74.77;100679.41;7284970;19;151973;-53
2021/09/10 03:04:11;;;;;;;;;;;;;;;23.94;75.33;100673.78;7285879;19;152900;-53
2021/09/10 03:06:38;;;;;;;;;;;;;;;23.93;75.17;100681.44;7282614;19;153789;-53
2021/09/10 03:09:06;;;;;;;;;;;;;;;23.96;75.25;100676.28;7283232;19;151768;-53
2021/09/10 03:11:33;;;;;;;;;;;;;;;23.96;75.06;100670.63;7276154;19;153363;-54
2021/09/10 03:14:00;;;;;;;;;;;;;;;23.93;75.35;100672.97;7282239;19;152770;-52
2021/09/10 03:16:27;;;;;;;;;;;;;;;23.98;75.43;100671.13;7284622;19;152041;-53
2021/09/10 03:18:54;;;;;;;;;;;;;;;23.97;75.58;100667.47;7280160;19;153400;-54
2021/09/10 03:21:21;;;;;;;;;;;;;;;24.00;75.77;100674.41;7284318;19;154281;-53
2021/09/10 03:23:48;;;;;;;;;;;;;;;24.02;75.75;100677.75;7284155;19;153376;-53
2021/09/10 03:26:15;;;;;;;;;;;;;;;24.03;75.04;100676.59;7282945;19;154019;-52
2021/09/10 03:28:42;;;;;;;;;;;;;;;24.04;75.39;100675.41;7281519;19;151761;-54
2021/09/10 03:31:09;;;;;;;;;;;;;;;24.01;74.81;100670.44;7281643;19;152764;-53
2021/09/10 03:33:36;;;;;;;;;;;;;;;23.98;74.80;100671.13;7282727;19;153292;-53
2021/09/10 03:36:03;;;;;;;;;;;;;;;23.97;75.14;100666.66;7282766;19;152050;-53
2021/09/10 03:38:30;;;;;;;;;;;;;;;23.95;74.78;100669.78;7282951;19;153836;-53
2021/09/10 03:40:57;;;;;;;;;;;;;;;24.01;74.99;100673.25;7280582;19;152683;-53
2021/09/10 03:43:24;;;;;;;;;;;;;;;23.99;74.90;100662.31;7290060;19;151907;-53
2021/09/10 03:45:51;;;;;;;;;;;;;;;24.00;75.18;100672.44;7282992;19;153591;-53
2021/09/10 03:48:18;;;;;;;;;;;;;;;24.00;74.57;100672.44;7282192;19;152444;-54
2021/09/10 03:50:45;;;;;;;;;;;;;;;24.03;74.90;100676.59;7282690;19;152746;-53
2021/09/10 03:53:12;;;;;;;;;;;;;;;24.00;74.92;100671.59;7280593;19;154074;-53
2021/09/10 03:55:39;;;;;;;;;;;;;;;23.99;74.99;100672.75;7277936;19;151935;-53
2021/09/10 03:58:06;;;;;;;;;;;;;;;24.00;75.50;100665.94;7283527;19;152504;-53
2021/09/10 04:00:32;;;;;;;;;;;;;;;23.99;75.16;100682.06;7280297;19;153964;-52
2021/09/10 04:03:03;;;;;;;;;;;;;;;23.99;75.14;100676.41;7295000;19;152357;-52
2021/09/10 04:05:31;;;;;;;;;;;;;;;24.01;75.17;100678.91;7285372;19;154258;-53
2021/09/10 04:07:58;;;;;;;;;;;;;;;24.02;74.99;100674.94;7288295;19;151786;-53
2021/09/10 04:10:25;;;;;;;;;;;;;;;24.03;75.16;100677.38;7289262;19;153240;-53
2021/09/10 04:12:53;;;;;;;;;;;;;;;24.03;75.04;100685.84;7286241;19;153980;-53
2021/09/10 04:15:20;;;;;;;;;;;;;;;24.01;75.10;100681.72;7288882;19;151735;-52
2021/09/10 04:17:47;;;;;;;;;;;;;;;24.01;75.22;100684.56;7288333;19;152632;-53
2021/09/10 04:20:14;;;;;;;;;;;;;;;23.99;74.85;100686.88;7289447;19;152154;-53
2021/09/10 04:22:42;;;;;;;;;;;;;;;24.03;74.97;100676.59;7288600;19;152076;-52
2021/09/10 04:25:09;;;;;;;;;;;;;;;24.02;74.55;100683.41;7293879;19;153398;-54
2021/09/10 04:27:36;;;;;;;;;;;;;;;24.03;74.82;100670.94;7288410;19;152544;-53
2021/09/10 04:30:05;;;;;;;;;;;;;;;24.04;74.92;100675.41;7284040;19;153356;-53
2021/09/10 04:32:32;;;;;;;;;;;;;;;24.02;74.63;100670.09;7287966;19;153751;-52
2021/09/10 04:34:59;;;;;;;;;;;;;;;24.03;74.28;100663.28;7288615;19;152052;-53
2021/09/10 04:37:26;;;;;;;;;;;;;;;24.02;74.74;100675.75;7286942;19;152670;-53
2021/09/10 04:39:53;;;;;;;;;;;;;;;24.00;74.64;100669.59;7287345;19;154150;-53
2021/09/10 04:42:20;;;;;;;;;;;;;;;24.02;74.83;100678.59;7283659;19;152720;-53
2021/09/10 04:44:47;;;;;;;;;;;;;;;24.02;74.47;100675.75;7289123;19;152666;-53
2021/09/10 04:47:14;;;;;;;;;;;;;;;24.03;74.82;100674.56;7294447;19;153937;-53
2021/09/10 04:49:42;;;;;;;;;;;;;;;24.01;74.74;100670.44;7286357;19;152554;-52
2021/09/10 04:52:09;;;;;;;;;;;;;;;24.02;74.88;100672.09;7287107;19;153770;-52
2021/09/10 04:54:36;;;;;;;;;;;;;;;24.01;74.79;100676.09;7284130;19;152105;-53
2021/09/10 04:57:03;;;;;;;;;;;;;;;24.02;74.70;100675.75;7285270;19;152004;-53
2021/09/10 04:59:30;;;;;;;;;;;;;;;23.99;75.03;100676.41;7287804;19;153468;-53
2021/09/10 05:01:57;;;;;;;;;;;;;;;23.98;74.71;100680.44;7288478;19;151817;-53
2021/09/10 05:04:28;;;;;;;;;;;;;;;23.97;74.75;100680.75;7287932;19;153442;-53
2021/09/10 05:06:55;;;;;;;;;;;;;;;23.98;74.41;100679.59;7285228;19;153719;-54
2021/09/10 05:09:22;;;;;;;;;;;;;;;23.96;74.25;100677.09;7291630;19;152201;-53
2021/09/10 05:11:49;;;;;;;;;;;;;;;23.94;74.80;100683.06;7280539;19;153888;-53
2021/09/10 05:14:16;;;;;;;;;;;;;;;23.94;74.63;100680.25;7285401;19;153394;-53
2021/09/10 05:16:43;;;;;;;;;;;;;;;23.93;74.58;100677.78;7288299;19;153623;-53
2021/09/10 05:19:12;;;;;;;;;;;;;;;23.93;74.67;100683.44;7285103;19;153375;-53
2021/09/10 05:21:39;;;;;;;;;;;;;;;23.93;74.58;100691.91;7287257;19;152827;-53
2021/09/10 05:24:06;;;;;;;;;;;;;;;23.93;74.61;100689.91;7288906;19;152745;-53
2021/09/10 05:26:34;;;;;;;;;;;;;;;23.91;74.46;100685.75;7284590;19;152188;-53
2021/09/10 05:29:01;;;;;;;;;;;;;;;23.92;74.88;100684.59;7286275;19;151866;-54
2021/09/10 05:31:28;;;;;;;;;;;;;;;23.91;74.81;100694.22;7292041;19;152485;-53
2021/09/10 05:33:55;;;;;;;;;;;;;;;23.91;74.67;100680.09;7286268;19;151732;-53
2021/09/10 05:36:22;;;;;;;;;;;;;;;23.92;74.36;100684.59;7285737;19;153154;-53
2021/09/10 05:38:49;;;;;;;;;;;;;;;23.93;74.84;100689.91;7287046;19;153304;-53
2021/09/10 05:41:16;;;;;;;;;;;;;;;23.92;74.67;100695.88;7285448;19;151761;-52
2021/09/10 05:43:43;;;;;;;;;;;;;;;23.92;74.99;100684.59;7287636;19;152828;-52
2021/09/10 05:46:11;;;;;;;;;;;;;;;23.91;74.79;100697.88;7285108;19;153780;-53
2021/09/10 05:48:38;;;;;;;;;;;;;;;23.90;75.09;100689.72;7284795;19;152048;-52
2021/09/10 05:51:06;;;;;;;;;;;;;;;23.91;75.14;100685.75;7284533;19;152685;-53
2021/09/10 05:53:33;;;;;;;;;;;;;;;23.90;74.83;100686.91;7293791;19;153633;-52
2021/09/10 05:56:01;;;;;;;;;;;;;;;23.90;75.07;100686.91;7286819;19;152731;-52
2021/09/10 05:58:28;;;;;;;;;;;;;;;23.89;74.70;100697.38;7284211;19;154244;-52
2021/09/10 06:00:55;;;;;;;;;;;;;;;23.88;74.86;100697.72;7287465;19;151809;-52
2021/09/10 06:03:22;;;;;;;;;;;;;;;23.90;74.97;100696.22;7285317;19;153441;-53
2021/09/10 06:05:49;;;;;;;;;;;;;;;23.88;74.85;100695.72;7287238;19;153755;-53
2021/09/10 06:08:16;;;;;;;;;;;;;;;23.92;75.29;100702.34;7286039;19;151745;-52
2021/09/10 06:10:46;;;;;;;;;;;;;;;23.92;74.80;100708.00;7282923;19;153054;-52
2021/09/10 06:13:17;;;;;;;;;;;;;;;23.92;74.61;100704.34;7291011;19;153428;-53
2021/09/10 06:15:44;;;;;;;;;;;;;;;23.93;74.91;100715.31;7285320;19;153254;-52
2021/09/10 06:18:11;;;;;;;;;;;;;;;23.96;74.55;100719.44;7284184;19;153373;-52
2021/09/10 06:20:38;;;;;;;;;;;;;;;23.85;72.89;100721.78;7286493;19;151615;-53
2021/09/10 06:23:05;;;;;;;;;;;;;;;23.80;73.09;100724.78;7282594;19;153358;-54
2021/09/10 06:25:32;;;;;;;;;;;;;;;23.78;73.21;100724.31;7283691;19;152625;-54
2021/09/10 06:27:59;;;;;;;;;;;;;;;23.65;71.54;100730.97;7286350;19;151881;-53
2021/09/10 06:30:26;;;;;;;;;;;;;;;23.53;71.51;100727.19;7284155;19;152576;-54
2021/09/10 06:32:53;;;;;;;;;;;;;;;23.42;71.52;100735.13;7282018;19;153812;-53
2021/09/10 06:35:20;;;;;;;;;;;;;;;23.13;73.18;100737.78;7292847;19;151878;-54
2021/09/10 06:37:47;;;;;;;;;;;;;;;23.18;73.14;100744.09;7285986;19;153651;-54
2021/09/10 06:40:15;;;;;;;;;;;;;;;23.30;72.58;100743.44;7286211;19;151680;-54
2021/09/10 06:42:42;;;;;;;;;;;;;;;23.33;73.01;100740.78;7284251;19;153009;-53
2021/09/10 06:45:11;;;;;;;;;;;;;;;23.38;72.58;100748.25;7283529;19;154899;-53
2021/09/10 06:47:38;;;;;;;;;;;;;;;23.38;72.36;100753.88;7284410;19;151674;-53
2021/09/10 06:50:09;;;;;;;;;;;;;;;23.37;72.75;100743.75;7281548;19;153682;-54
2021/09/10 06:52:37;;;;;;;;;;;;;;;23.38;72.20;100746.25;7282942;19;153869;-53
2021/09/10 06:55:06;;;;;;;;;;;;;;;23.38;72.12;100746.25;7283583;19;152033;-54
2021/09/10 06:57:33;;;;;;;;;;;;;;;23.39;72.08;100747.88;7291396;19;153435;-54
2021/09/10 07:00:01;;;;;;;;;;;;;;;23.40;72.71;100743.91;7286528;19;151850;-54
2021/09/10 07:02:28;;;;;;;;;;;;;;;23.41;72.35;100745.56;7282815;19;153772;-54
2021/09/10 07:04:55;;;;;;;;;;;;;;;23.42;72.37;100758.53;7284929;19;155595;-54
2021/09/10 07:07:22;;;;;;;;;;;;;;;23.39;72.48;100747.88;7285576;19;151767;-53
2021/09/10 07:09:50;;;;;;;;;;;;;;;23.48;72.52;100751.56;7284769;19;153904;-53
2021/09/10 07:12:18;;;;;;;;;;;;;;;23.45;72.84;100742.94;7283064;19;153723;-54
2021/09/10 07:14:45;;;;;;;;;;;;;;;23.51;72.57;100752.91;7284389;19;152034;-51
2021/09/10 07:17:12;;;;;;;;;;;;;;;23.48;72.17;100756.41;7284623;19;152967;-51
2021/09/10 07:19:39;;;;;;;;;;;;;;;23.49;72.49;100753.22;7291642;19;153292;-52
2021/09/10 07:22:07;;;;;;;;;;;;;;;23.46;72.28;100753.06;7282629;19;152665;-51
2021/09/10 07:24:34;;;;;;;;;;;;;;;23.47;72.80;100754.72;7281459;19;153430;-51
2021/09/10 07:27:01;;;;;;;;;;;;;;;23.47;72.63;100754.72;7279130;19;152217;-51
2021/09/10 07:29:28;;;;;;;;;;;;;;;23.46;73.20;100756.72;7282954;19;154759;-51
2021/09/10 07:31:55;;;;;;;;;;;;;;;23.45;73.86;100757.03;7281967;19;153613;-51
2021/09/10 07:34:22;;;;;;;;;;;;;;;23.44;73.58;100761.00;7285124;19;151695;-51
2021/09/10 07:36:49;;;;;;;;;;;;;;;23.43;73.71;100756.53;7281121;19;152736;-51
2021/09/10 07:39:17;;;;;;;;;;;;;;;23.42;73.55;100755.69;7283531;19;152856;-51
2021/09/10 07:41:44;;;;;;;;;;;;;;;23.42;73.17;100761.34;7289274;19;151759;-52
2021/09/10 07:44:14;;;;;;;;;;;;;;;23.43;73.53;100759.34;7268159;19;156312;-51
2021/09/10 07:46:41;;;;;;;;;;;;;;;23.43;73.21;100760.19;7280746;19;153443;-51
2021/09/10 07:49:08;;;;;;;;;;;;;;;23.44;73.52;100761.00;7286372;19;153563;-51
2021/09/10 07:51:36;;;;;;;;;;;;;;;23.43;73.41;100771.47;7283177;19;152911;-51
2021/09/10 07:54:04;;;;;;;;;;;;;;;23.41;73.08;100768.13;7281674;19;151809;-51
2021/09/10 07:56:32;;;;;;;;;;;;;;;23.42;73.13;100769.78;7281846;19;152995;-51
2021/09/10 07:58:59;;;;;;;;;;;;;;;23.42;73.33;100766.16;7281595;19;153812;-51
2021/09/10 08:01:26;;;;;;;;;;;;;;;23.40;73.36;100769.28;7285118;19;152070;-51
2021/09/10 08:03:54;;;;;;;;;;;;;;;23.40;73.27;100771.28;7287554;19;154073;-51
2021/09/10 08:06:21;;;;;;;;;;;;;;;23.40;73.16;100760.81;7283864;19;152073;-52
2021/09/10 08:08:49;;;;;;;;;;;;;;;23.39;73.23;100770.44;7284190;19;153640;-52
2021/09/10 08:11:16;;;;;;;;;;;;;;;23.40;73.32;100766.47;7278288;19;153280;-51
2021/09/10 08:13:43;;;;;;;;;;;;;;;23.39;73.17;100778.91;7280440;19;151751;-51
2021/09/10 08:16:10;;;;;;;;;;;;;;;23.39;73.09;100778.91;7284202;19;152680;-51
2021/09/10 08:18:37;;;;;;;;;;;;;;;23.40;73.41;100786.19;7277929;19;152370;-51
2021/09/10 08:21:05;;;;;;;;;;;;;;;23.38;73.05;100780.09;7283427;19;151648;-51
2021/09/10 08:23:32;;;;;;;;;;;;;;;23.38;73.03;100782.91;7287492;19;152928;-50
2021/09/10 08:26:00;;;;;;;;;;;;;;;23.36;72.99;100782.38;7282479;19;152272;-51
2021/09/10 08:28:27;;;;;;;;;;;;;;;23.36;73.46;100784.38;7279753;19;152161;-51
2021/09/10 08:30:55;;;;;;;;;;;;;;;23.37;72.90;100788.88;7277160;19;154226;-51
2021/09/10 08:33:23;;;;;;;;;;;;;;;23.37;73.11;100786.88;7281204;19;152032;-51
2021/09/10 08:35:51;;;;;;;;;;;;;;;23.36;73.19;100790.03;7277629;19;153153;-50
2021/09/10 08:38:17;;;;;;;;;;;;;;;23.35;73.42;100789.19;7280085;19;153895;-51
2021/09/10 08:40:46;;;;;;;;;;;;;;;23.35;72.84;100794.81;7281487;19;152259;-51
2021/09/10 08:43:14;;;;;;;;;;;;;;;23.36;72.82;100790.03;7278371;19;153594;-51
2021/09/10 08:45:41;;;;;;;;;;;;;;;23.36;73.11;100787.19;7285435;19;153700;-51
2021/09/10 08:48:09;;;;;;;;;;;;;;;23.35;72.83;100797.66;7277868;19;152693;-51
2021/09/10 08:50:36;;;;;;;;;;;;;;;23.34;72.92;100796.00;7285466;19;154061;-51
2021/09/10 08:53:03;;;;;;;;;;;;;;;23.33;73.34;100799.97;7286743;19;153294;-51
2021/09/10 08:55:30;;;;;;;;;;;;;;;23.34;73.24;100796.00;7283160;19;152503;-54
2021/09/10 08:57:57;;;;;;;;;;;;;;;23.33;72.95;100802.81;7283808;19;154254;-54
2021/09/10 09:00:26;;;;;;;;;;;;;;;23.33;72.80;100810.44;7288715;19;152071;-54
2021/09/10 09:02:57;;;;;;;;;;;;;;;23.32;73.20;100805.94;7285684;19;153862;-54
2021/09/10 09:05:25;;;;;;;;;;;;;;;23.32;73.26;100814.41;7287228;19;153705;-54
2021/09/10 09:07:55;;;;;;;;;;;;;;;23.32;72.92;100815.22;7294173;19;151882;-53
2021/09/10 09:10:24;;;;;;;;;;;;;;;23.33;72.60;100814.09;7284838;19;154119;-54
2021/09/10 09:12:51;;;;;;;;;;;;;;;23.33;72.62;100819.72;7286883;19;151855;-53
2021/09/10 09:15:19;;;;;;;;;;;;;;;23.33;72.95;100814.09;7286625;19;152185;-53
2021/09/10 09:17:46;;;;;;;;;;;;;;;23.34;72.94;100821.38;7287603;19;153931;-53
2021/09/10 09:20:15;;;;;;;;;;;;;;;23.35;72.85;100825.00;7288074;19;156989;-54
2021/09/10 09:22:45;;;;;;;;;;;;;;;23.35;72.71;100819.38;7286108;19;153310;-54
2021/09/10 09:25:12;;;;;;;;;;;;;;;23.35;72.67;100819.38;7285521;19;153896;-54
2021/09/10 09:27:39;;;;;;;;;;;;;;;23.35;72.43;100825.84;7285945;19;152102;-54
2021/09/10 09:30:06;;;;;;;;;;;;;;;23.35;72.53;100819.38;7292333;19;153879;-53
2021/09/10 09:32:36;;;;;;;;;;;;;;;23.35;72.46;100817.38;7284428;19;152308;-53
2021/09/10 09:35:04;;;;;;;;;;;;;;;23.34;72.79;100815.75;7284933;19;152828;-53
2021/09/10 09:37:34;;;;;;;;;;;;;;;23.34;72.32;100818.56;7283919;19;152552;-54
2021/09/10 09:40:01;;;;;;;;;;;;;;;23.35;72.33;100816.53;7285612;19;152145;-54
2021/09/10 09:42:30;;;;;;;;;;;;;;;23.35;72.12;100819.38;7286005;19;153376;-54
2021/09/10 09:45:00;;;;;;;;;;;;;;;23.35;72.46;100820.19;7284666;19;153981;-53
2021/09/10 09:47:27;;;;;;;;;;;;;;;23.36;72.16;100810.59;7280748;19;152470;-54
2021/09/10 09:49:57;;;;;;;;;;;;;;;23.36;72.15;100819.03;7282540;19;153434;-54
2021/09/10 09:52:25;;;;;;;;;;;;;;;23.37;72.38;100823.53;7292776;19;155495;-54
2021/09/10 09:54:52;;;;;;;;;;;;;;;23.37;72.34;100820.72;7283995;19;154189;-54
2021/09/10 09:57:19;;;;;;;;;;;;;;;23.37;72.05;100817.91;7283657;19;152570;-54
2021/09/10 09:59:46;;;;;;;;;;;;;;;23.37;72.54;100817.91;7286371;19;152052;-53
2021/09/10 10:02:13;;;;;;;;;;;;;;;23.37;72.29;100815.06;7282757;19;153290;-54
2021/09/10 10:04:41;;;;;;;;;;;;;;;23.37;72.03;100817.91;7285586;19;152282;-54
2021/09/10 10:07:09;;;;;;;;;;;;;;;23.37;72.32;100817.91;7282729;19;152010;-54
2021/09/10 10:09:37;;;;;;;;;;;;;;;23.36;72.19;100809.75;7284409;19;153063;-53
2021/09/10 10:12:04;;;;;;;;;;;;;;;23.37;72.13;100811.41;7280428;19;154147;-54
2021/09/10 10:14:33;;;;;;;;;;;;;;;23.37;72.12;100814.25;7293232;19;151958;-54
2021/09/10 10:17:02;;;;;;;;;;;;;;;23.36;71.92;100809.75;7282466;19;153243;-54
2021/09/10 10:19:32;;;;;;;;;;;;;;;23.35;72.45;100810.91;7284201;19;152034;-54
2021/09/10 10:22:00;;;;;;;;;;;;;;;23.35;72.15;100813.72;7284573;19;152762;-54
2021/09/10 10:24:30;;;;;;;;;;;;;;;23.35;72.25;100808.91;7282243;19;153881;-54
2021/09/10 10:27:17;;;;;;;;;;;;;;;23.34;72.25;100818.56;7282936;19;152342;-53
2021/09/10 10:29:44;;;;;;;;;;;;;;;23.33;71.87;100819.72;7283011;19;153067;-54
2021/09/10 10:32:11;;;;;;;;;;;;;;;23.32;71.79;100832.16;7281626;19;153442;-54
2021/09/10 10:34:58;;;;;;;;;;;;;;;23.33;72.02;100847.09;7291804;19;151649;-53
2021/09/10 10:37:28;;;;;;;;;;;;;;;23.32;71.93;100848.22;7281874;19;154250;-54
2021/09/10 10:40:15;;;;;;;;;;;;;;;23.32;72.35;100854.72;7284680;19;151977;-54
2021/09/10 10:43:03;;;;;;;;;;;;;;;23.31;72.62;100852.22;7282424;19;152234;-54
2021/09/10 10:45:33;;;;;;;;;;;;;;;23.29;73.10;100848.91;7276418;19;154087;-54
2021/09/10 10:48:00;;;;;;;;;;;;;;;23.31;72.88;100847.41;7281924;19;152305;-54
2021/09/10 10:50:30;;;;;;;;;;;;;;;23.32;72.46;100848.22;7281183;19;152662;-54
2021/09/10 10:52:57;;;;;;;;;;;;;;;23.32;72.87;100846.25;7282749;19;152617;-54
2021/09/10 10:55:24;;;;;;;;;;;;;;;23.33;72.95;100847.91;7280526;19;152311;-53
2021/09/10 10:57:53;;;;;;;;;;;;;;;23.35;72.69;100847.56;7290649;19;152748;-54
2021/09/10 11:00:23;;;;;;;;;;;;;;;23.38;72.60;100850.56;7282310;19;152036;-54
2021/09/10 11:02:50;;;;;;;;;;;;;;;23.40;72.45;100848.25;7283125;19;153338;-53
2021/09/10 11:05:25;;;;;;;;;;;;;;;23.42;72.31;100843.13;7280795;19;153846;-54
2021/09/10 11:07:52;;;;;;;;;;;;;;;23.45;71.96;100836.00;7281282;19;151937;-54
2021/09/10 11:10:19;;;;;;;;;;;;;;;23.45;72.18;100842.47;7280438;19;153673;-54
2021/09/10 11:12:48;;;;;;;;;;;;;;;23.48;71.98;100844.63;7280316;19;153358;-53
2021/09/10 11:15:17;;;;;;;;;;;;;;;23.53;71.45;100842.81;7280511;19;152618;-51
2021/09/10 11:17:52;;;;;;;;;;;;;;;23.56;71.49;100842.97;7281784;19;153421;-50
2021/09/10 11:20:22;;;;;;;;;;;;;;;23.56;71.81;100844.97;7287145;19;154157;-51
2021/09/10 11:22:49;;;;;;;;;;;;;;;23.56;72.07;100840.16;7283231;19;152622;-51
2021/09/10 11:25:16;;;;;;;;;;;;;;;23.55;71.93;100835.69;7283101;19;153883;-51
2021/09/10 11:27:43;;;;;;;;;;;;;;;23.55;72.30;100837.66;7282290;19;152342;-51
2021/09/10 11:30:11;;;;;;;;;;;;;;;23.55;72.19;100834.84;7282580;19;152876;-51
2021/09/10 11:32:38;;;;;;;;;;;;;;;23.53;72.32;100840.81;7277618;19;153778;-51
2021/09/10 11:35:08;;;;;;;;;;;;;;;23.54;72.55;100838.81;7280243;19;151964;-51
2021/09/10 11:37:35;;;;;;;;;;;;;;;23.52;72.66;100838.34;7284107;19;152805;-51
2021/09/10 11:40:02;;;;;;;;;;;;;;;23.49;72.75;100839.81;7280850;19;153304;-51
2021/09/10 11:42:32;;;;;;;;;;;;;;;23.47;72.70;100831.72;7291575;19;152330;-52
2021/09/10 11:45:00;;;;;;;;;;;;;;;23.47;72.93;100837.34;7281658;19;153764;-51
2021/09/10 11:47:27;;;;;;;;;;;;;;;23.46;72.80;100838.50;7282307;19;151591;-51
2021/09/10 11:49:58;;;;;;;;;;;;;;;23.46;72.41;100837.66;7275627;19;153345;-51
2021/09/10 11:52:28;;;;;;;;;;;;;;;23.48;72.34;100838.97;7276143;19;153319;-51
2021/09/10 11:54:58;;;;;;;;;;;;;;;23.47;72.71;100825.22;7278394;19;152112;-51
2021/09/10 11:57:25;;;;;;;;;;;;;;;23.46;72.42;100844.13;7278948;19;153543;-52
2021/09/10 11:59:52;;;;;;;;;;;;;;;23.46;72.67;100840.50;7281538;19;154478;-52
2021/09/10 12:02:19;;;;;;;;;;;;;;;23.45;72.64;100838.81;7281600;19;152074;-51
2021/09/10 12:04:54;;;;;;;;;;;;;;;23.44;72.90;100838.00;7288366;19;153709;-51
2021/09/10 12:07:25;;;;;;;;;;;;;;;23.44;72.68;100835.16;7282890;19;151668;-51
2021/09/10 12:09:52;;;;;;;;;;;;;;;23.43;72.60;100841.97;7280894;19;152827;-51
2021/09/10 12:12:21;;;;;;;;;;;;;;;23.44;72.83;100849.25;7278895;19;152845;-51
2021/09/10 12:14:51;;;;;;;;;;;;;;;23.43;72.44;100843.94;7281401;19;151796;-51
2021/09/10 12:17:21;;;;;;;;;;;;;;;23.43;72.80;100838.31;7279537;19;152171;-53
2021/09/10 12:19:48;;;;;;;;;;;;;;;23.42;72.39;100851.56;7281357;19;152277;-54
2021/09/10 12:22:18;;;;;;;;;;;;;;;23.41;72.62;100846.25;7279024;19;152129;-53
2021/09/10 12:24:45;;;;;;;;;;;;;;;23.41;72.66;100849.91;7286463;19;153448;-54
2021/09/10 12:27:12;;;;;;;;;;;;;;;23.41;72.46;100843.44;7294008;19;152350;-53
2021/09/10 12:29:39;;;;;;;;;;;;;;;23.40;72.42;100853.88;7284915;19;153084;-54